Time;durP1;ratioP1;P1;durP2;ratioP2;P2;SDS_P1;SDS_P2;PMS_P1;PMS_P2;Temp;Humidity;BMP_temperature;BMP_pressure;BME280_temperature;BME280_humidity;BME280_pressure;Samples;Min_cycle;Max_cycle;Signal;HPM_P1;HPM_P2
2022/10/02 00:01:33;;;;;;;10.98;4.60;;;13.10;92.60;;;;;;5064922;28;20438;-69
2022/10/02 00:04:01;;;;;;;9.90;4.10;;;13.10;92.70;;;;;;5064797;28;20434;-70
2022/10/02 00:06:41;;;;;;;9.93;4.30;;;13.20;92.80;;;;;;5066907;28;20448;-68
2022/10/02 00:09:18;;;;;;;10.75;3.97;;;13.20;92.70;;;;;;5067103;28;20415;-68
2022/10/02 00:11:49;;;;;;;10.68;4.40;;;13.20;92.80;;;;;;5065323;28;20427;-68
2022/10/02 00:14:19;;;;;;;11.50;4.25;;;13.20;92.90;;;;;;5046641;28;20907;-68
2022/10/02 00:16:49;;;;;;;11.25;4.20;;;13.30;92.80;;;;;;5051637;28;20928;-68
2022/10/02 00:19:18;;;;;;;11.50;3.70;;;13.40;92.70;;;;;;5062519;28;20459;-71
2022/10/02 00:22:04;;;;;;;8.93;4.10;;;13.30;92.70;;;;;;5070271;28;20419;-69
2022/10/02 00:24:38;;;;;;;11.35;4.00;;;13.40;92.70;;;;;;5070334;28;20419;-69
2022/10/02 00:27:15;;;;;;;14.70;4.40;;;13.40;92.80;;;;;;5069220;28;20444;-69
2022/10/02 00:29:49;;;;;;;10.32;3.80;;;13.40;92.80;;;;;;5070435;28;20416;-70
2022/10/02 00:32:25;;;;;;;13.45;4.10;;;13.40;92.80;;;;;;5068655;28;20498;-70
2022/10/02 00:35:26;;;;;;;11.27;4.00;;;13.40;92.80;;;;;;5067406;28;20459;-70
2022/10/02 00:37:58;;;;;;;13.13;4.30;;;13.40;93.00;;;;;;5070116;28;20761;-70
2022/10/02 00:40:39;;;;;;;13.73;4.50;;;13.40;93.00;;;;;;5069274;28;20503;-70
2022/10/02 00:43:17;;;;;;;13.90;4.15;;;13.40;93.00;;;;;;5069139;28;20427;-70
2022/10/02 00:46:20;;;;;;;11.10;4.20;;;13.50;93.00;;;;;;5070047;28;20408;-70
2022/10/02 00:49:05;;;;;;;12.10;4.32;;;13.50;92.90;;;;;;5063261;28;20435;-70
2022/10/02 00:51:46;;;;;;;15.95;4.75;;;13.60;92.90;;;;;;5069313;28;20412;-69
2022/10/02 00:54:25;;;;;;;13.18;3.80;;;13.60;92.70;;;;;;5069591;28;20423;-69
2022/10/02 00:57:04;;;;;;;9.55;3.70;;;13.60;92.70;;;;;;5067766;28;20514;-70
2022/10/02 00:59:50;;;;;;;12.98;4.30;;;13.60;92.70;;;;;;5069361;28;20415;-70
2022/10/02 01:02:42;;;;;;;9.80;4.00;;;13.60;92.80;;;;;;5068608;28;20443;-70
2022/10/02 01:05:09;;;;;;;11.48;4.13;;;13.60;92.80;;;;;;5068381;28;20438;-70
2022/10/02 01:07:39;;;;;;;11.18;4.25;;;13.60;92.90;;;;;;5069758;28;20424;-70
2022/10/02 01:10:08;;;;;;;12.20;4.20;;;13.60;92.80;;;;;;5069621;28;20415;-70
2022/10/02 01:12:36;;;;;;;13.90;4.50;;;13.50;92.90;;;;;;5065459;28;20779;-70
2022/10/02 01:15:11;;;;;;;11.82;3.63;;;13.60;93.00;;;;;;5069435;28;20514;-70
2022/10/02 01:17:38;;;;;;;13.88;4.43;;;13.60;92.90;;;;;;5068398;28;20437;-70
2022/10/02 01:20:07;;;;;;;11.05;4.43;;;13.60;92.80;;;;;;5069425;28;20419;-69
2022/10/02 01:22:40;;;;;;;12.27;4.13;;;13.60;92.90;;;;;;5069102;28;20459;-68
2022/10/02 01:25:09;;;;;;;15.40;4.80;;;13.70;92.90;;;;;;5069129;28;20430;-69
2022/10/02 01:27:36;;;;;;;13.63;4.72;;;13.70;93.00;;;;;;5067935;28;20943;-70
2022/10/02 01:30:06;;;;;;;12.68;4.50;;;13.70;93.00;;;;;;5067383;28;20423;-70
2022/10/02 01:32:34;;;;;;;15.02;4.47;;;13.70;93.00;;;;;;5068023;28;20462;-70
2022/10/02 01:35:01;;;;;;;14.60;4.20;;;13.80;93.00;;;;;;5068937;28;20430;-70
2022/10/02 01:37:31;;;;;;;12.07;4.65;;;13.70;93.00;;;;;;5069142;28;20419;-68
2022/10/02 01:40:01;;;;;;;10.25;4.30;;;13.80;93.00;;;;;;5068935;28;20899;-70
2022/10/02 01:42:30;;;;;;;14.93;5.00;;;13.80;92.90;;;;;;5067075;28;20442;-70
2022/10/02 01:44:57;;;;;;;14.05;5.50;;;13.80;92.90;;;;;;5068951;28;20893;-69
2022/10/02 01:47:32;;;;;;;15.40;5.32;;;13.80;93.00;;;;;;5068673;28;20415;-71
2022/10/02 01:50:12;;;;;;;13.30;4.90;;;13.80;93.00;;;;;;5067571;28;20959;-69
2022/10/02 01:52:49;;;;;;;15.27;5.00;;;13.80;93.10;;;;;;5067920;28;20484;-69
2022/10/02 01:55:25;;;;;;;14.95;4.80;;;13.80;93.10;;;;;;5067492;28;20431;-69
2022/10/02 01:58:05;;;;;;;13.53;5.00;;;13.80;93.20;;;;;;5068407;28;20423;-69
2022/10/02 02:00:46;;;;;;;15.32;5.03;;;13.80;93.20;;;;;;5068109;28;20782;-69
2022/10/02 02:03:18;;;;;;;13.40;4.53;;;13.80;93.20;;;;;;5067680;28;20786;-69
2022/10/02 02:05:54;;;;;;;13.63;4.68;;;13.80;93.30;;;;;;5068351;28;20407;-70
2022/10/02 02:08:30;;;;;;;13.43;5.35;;;13.80;93.30;;;;;;5068283;28;20435;-69
2022/10/02 02:11:09;;;;;;;11.77;4.97;;;13.80;93.30;;;;;;5066418;28;20912;-69
2022/10/02 02:13:45;;;;;;;15.30;4.80;;;13.80;93.30;;;;;;5067487;28;20423;-70
2022/10/02 02:16:21;;;;;;;13.32;4.80;;;13.90;93.30;;;;;;5068263;28;20481;-69
2022/10/02 02:18:53;;;;;;;17.13;4.80;;;13.90;93.20;;;;;;5068011;28;20442;-70
2022/10/02 02:21:24;;;;;;;14.35;4.70;;;13.90;93.10;;;;;;5068395;28;20419;-69
2022/10/02 02:23:52;;;;;;;13.17;4.70;;;13.90;93.10;;;;;;5066669;28;20488;-69
2022/10/02 02:26:20;;;;;;;11.70;4.47;;;13.90;93.20;;;;;;5067840;28;20412;-69
2022/10/02 02:28:53;;;;;;;15.40;4.88;;;13.90;93.20;;;;;;5068509;28;20419;-69
2022/10/02 02:31:24;;;;;;;14.55;4.70;;;14.00;93.00;;;;;;5069698;28;20411;-69
2022/10/02 02:33:56;;;;;;;15.27;4.23;;;14.00;92.90;;;;;;5066334;28;20486;-69
2022/10/02 02:36:26;;;;;;;11.35;4.38;;;14.00;92.90;;;;;;5065043;28;20438;-70
2022/10/02 02:38:58;;;;;;;13.35;4.57;;;13.90;92.90;;;;;;5066556;28;21084;-69
2022/10/02 02:41:28;;;;;;;11.40;4.00;;;14.00;92.80;;;;;;5066753;28;20462;-69
2022/10/02 02:44:01;;;;;;;13.07;4.30;;;13.90;92.80;;;;;;5067146;28;20415;-69
2022/10/02 02:46:34;;;;;;;16.23;4.50;;;14.00;92.80;;;;;;5067517;28;20415;-70
2022/10/02 02:49:06;;;;;;;13.93;4.70;;;14.00;92.80;;;;;;5066296;28;20434;-69
2022/10/02 02:51:39;;;;;;;17.65;4.95;;;14.00;92.60;;;;;;5067388;28;20415;-69
2022/10/02 02:54:12;;;;;;;13.93;4.87;;;14.00;93.00;;;;;;5066086;28;20808;-69
2022/10/02 02:56:41;;;;;;;12.15;4.90;;;14.00;92.50;;;;;;5066913;28;20419;-68
2022/10/02 02:59:12;;;;;;;15.18;5.20;;;14.00;92.50;;;;;;5067096;28;20451;-69
2022/10/02 03:01:39;;;;;;;14.63;5.18;;;14.10;92.40;;;;;;5067784;28;20416;-68
2022/10/02 03:04:05;;;;;;;13.18;4.70;;;14.10;92.20;;;;;;5067174;28;20420;-69
2022/10/02 03:06:36;;;;;;;15.68;5.47;;;14.20;92.20;;;;;;5066397;28;20943;-70
2022/10/02 03:09:05;;;;;;;15.77;4.45;;;14.20;92.20;;;;;;5066184;28;20439;-70
2022/10/02 03:11:48;;;;;;;16.23;4.82;;;14.20;92.20;;;;;;5066619;28;20427;-70
2022/10/02 03:14:44;;;;;;;16.02;4.90;;;14.20;92.20;;;;;;5058773;28;20419;-70
2022/10/02 03:17:22;;;;;;;13.07;5.20;;;14.20;92.20;;;;;;5067228;28;20427;-68
2022/10/02 03:19:55;;;;;;;13.93;4.50;;;14.20;92.20;;;;;;5066753;28;20523;-69
2022/10/02 03:22:28;;;;;;;18.17;4.70;;;14.20;92.20;;;;;;5065988;28;20432;-67
2022/10/02 03:25:03;;;;;;;15.25;4.53;;;14.20;92.20;;;;;;5066192;28;20516;-68
2022/10/02 03:27:35;;;;;;;12.57;4.57;;;14.20;92.20;;;;;;5066999;28;20931;-69
2022/10/02 03:30:07;;;;;;;11.10;4.63;;;14.20;92.20;;;;;;5066672;28;20415;-69
2022/10/02 03:32:34;;;;;;;16.48;4.90;;;14.20;92.20;;;;;;5067005;28;20415;-71
2022/10/02 03:35:02;;;;;;;11.27;4.18;;;14.30;92.10;;;;;;5066936;28;20427;-70
2022/10/02 03:37:30;;;;;;;12.68;4.18;;;14.30;92.00;;;;;;5065278;28;20427;-71
2022/10/02 03:39:58;;;;;;;11.98;4.40;;;14.30;91.90;;;;;;5065316;28;20438;-70
2022/10/02 03:42:29;;;;;;;14.30;4.65;;;14.40;92.00;;;;;;5066608;28;20419;-69
2022/10/02 03:44:55;;;;;;;10.88;4.20;;;14.40;92.00;;;;;;5067398;28;20418;-70
2022/10/02 03:47:24;;;;;;;14.15;4.82;;;14.40;92.10;;;;;;5066621;28;20427;-69
2022/10/02 03:49:50;;;;;;;12.20;3.92;;;14.40;92.10;;;;;;5066502;28;20424;-69
2022/10/02 03:52:19;;;;;;;12.70;3.97;;;14.40;92.20;;;;;;5066900;28;20422;-70
2022/10/02 03:54:46;;;;;;;11.73;4.40;;;14.30;92.40;;;;;;5069268;28;20427;-68
2022/10/02 03:57:20;;;;;;;14.50;5.05;;;14.30;92.40;;;;;;5050872;28;20453;-69
2022/10/02 03:59:51;;;;;;;16.08;5.30;;;14.30;92.70;;;;;;5050872;28;20818;-69
2022/10/02 04:02:29;;;;;;;14.43;5.18;;;14.30;93.00;;;;;;5059653;23;20456;-71
2022/10/02 04:05:02;;;;;;;13.63;4.82;;;14.30;93.30;;;;;;5029527;28;20422;-71
2022/10/02 04:07:33;;;;;;;13.70;4.20;;;14.20;93.60;;;;;;5032058;28;20819;-71
2022/10/02 04:10:18;;;;;;;12.53;4.50;;;14.20;94.00;;;;;;5033928;28;20414;-71
2022/10/02 04:12:48;;;;;;;12.80;4.72;;;14.10;94.30;;;;;;5032699;28;20430;-72
2022/10/02 04:15:21;;;;;;;12.18;4.40;;;14.10;94.40;;;;;;5034761;28;20431;-71
2022/10/02 04:17:53;;;;;;;14.17;4.40;;;14.00;94.60;;;;;;5030514;28;21353;-71
2022/10/02 04:20:25;;;;;;;13.45;4.40;;;14.00;94.70;;;;;;5030288;28;20423;-71
2022/10/02 04:22:57;;;;;;;13.73;4.50;;;14.00;94.80;;;;;;5030779;28;20435;-71
2022/10/02 04:25:28;;;;;;;13.30;4.90;;;14.00;94.90;;;;;;5032447;28;20427;-72
2022/10/02 04:28:01;;;;;;;13.40;4.85;;;14.00;94.90;;;;;;5031885;28;20959;-71
2022/10/02 04:30:28;;;;;;;12.15;4.50;;;14.00;94.90;;;;;;5031052;28;20415;-71
2022/10/02 04:32:58;;;;;;;12.40;4.07;;;14.00;95.30;;;;;;5029804;28;20433;-70
2022/10/02 04:35:32;;;;;;;13.50;4.13;;;14.10;94.80;;;;;;5029060;28;20438;-71
2022/10/02 04:38:16;;;;;;;11.00;4.18;;;14.00;95.20;;;;;;5029216;28;20445;-71
2022/10/02 04:40:56;;;;;;;13.00;4.60;;;14.00;95.30;;;;;;5030463;28;20422;-71
2022/10/02 04:43:40;;;;;;;12.23;4.95;;;13.90;95.80;;;;;;5029799;28;20438;-72
2022/10/02 04:46:34;;;;;;;13.55;4.63;;;13.80;96.00;;;;;;5030082;28;20419;-71
2022/10/02 04:49:18;;;;;;;12.53;4.90;;;13.80;96.30;;;;;;5029702;28;20437;-71
2022/10/02 04:52:08;;;;;;;12.32;4.28;;;13.80;96.40;;;;;;5028980;28;20435;-70
2022/10/02 04:55:01;;;;;;;11.02;4.07;;;13.80;96.40;;;;;;5024721;28;20429;-71
2022/10/02 04:57:44;;;;;;;12.95;4.30;;;13.80;96.20;;;;;;5029639;28;20430;-71
2022/10/02 05:00:13;;;;;;;12.15;4.50;;;13.80;96.40;;;;;;5030139;28;20418;-71
2022/10/02 05:02:56;;;;;;;11.35;4.13;;;13.80;96.30;;;;;;5028852;28;20454;-71
2022/10/02 05:05:35;;;;;;;12.43;3.50;;;13.80;96.30;;;;;;5028463;28;20940;-71
2022/10/02 05:08:30;;;;;;;10.00;3.95;;;13.80;96.00;;;;;;5020648;28;20444;-71
2022/10/02 05:11:09;;;;;;;11.55;3.78;;;13.80;96.10;;;;;;5026955;28;20921;-71
2022/10/02 05:13:54;;;;;;;10.15;3.40;;;13.80;95.90;;;;;;5023394;28;20446;-71
2022/10/02 05:16:32;;;;;;;11.85;3.75;;;13.80;95.70;;;;;;5023133;28;20426;-71
2022/10/02 05:19:20;;;;;;;9.15;3.92;;;13.80;96.10;;;;;;5029194;28;20435;-71
2022/10/02 05:22:10;;;;;;;10.02;4.07;;;13.80;95.60;;;;;;5022952;28;21006;-72
2022/10/02 05:24:48;;;;;;;12.55;4.40;;;13.80;95.60;;;;;;5028769;28;20438;-71
2022/10/02 05:27:36;;;;;;;11.30;3.70;;;13.80;95.70;;;;;;5029197;28;20411;-71
2022/10/02 05:30:07;;;;;;;8.70;3.88;;;13.80;95.70;;;;;;5029166;28;20465;-73
2022/10/02 05:32:59;;;;;;;11.85;3.90;;;13.80;95.70;;;;;;5022545;28;20427;-71
2022/10/02 05:35:51;;;;;;;10.02;3.47;;;13.80;96.20;;;;;;5022802;28;20430;-70
2022/10/02 05:38:32;;;;;;;10.80;4.20;;;13.80;95.60;;;;;;5027771;28;20542;-71
2022/10/02 05:41:03;;;;;;;11.18;4.00;;;13.90;95.60;;;;;;5028311;28;20419;-71
2022/10/02 05:43:37;;;;;;;8.90;3.50;;;13.80;95.70;;;;;;5026138;28;20415;-71
2022/10/02 05:46:10;;;;;;;11.40;3.92;;;13.80;95.70;;;;;;5029283;28;20897;-71
2022/10/02 05:48:43;;;;;;;9.00;4.25;;;13.80;95.60;;;;;;5028245;28;20431;-74
2022/10/02 05:51:16;;;;;;;7.25;3.80;;;13.80;95.80;;;;;;5026055;28;20430;-73
2022/10/02 05:53:47;;;;;;;10.87;3.70;;;13.80;95.80;;;;;;5029184;28;20426;-73
2022/10/02 05:56:21;;;;;;;8.32;4.10;;;13.90;95.70;;;;;;5025781;28;20438;-74
2022/10/02 05:58:53;;;;;;;9.13;4.40;;;13.90;95.70;;;;;;5027308;28;21048;-73
2022/10/02 06:01:25;;;;;;;8.10;3.83;;;13.90;95.70;;;;;;5027695;28;20419;-74
2022/10/02 06:04:01;;;;;;;11.55;3.80;;;13.90;95.70;;;;;;5028663;28;20415;-73
2022/10/02 06:06:33;;;;;;;7.40;3.85;;;13.90;95.60;;;;;;5023734;28;20860;-74
2022/10/02 06:09:05;;;;;;;8.63;3.60;;;13.90;95.70;;;;;;5028339;28;20427;-72
2022/10/02 06:11:37;;;;;;;11.38;4.28;;;13.90;95.70;;;;;;5028435;28;20409;-74
2022/10/02 06:14:12;;;;;;;7.32;3.50;;;13.90;95.90;;;;;;5026721;28;20960;-74
2022/10/02 06:16:44;;;;;;;6.95;3.30;;;13.90;95.50;;;;;;5036204;28;20597;-72
2022/10/02 06:19:16;;;;;;;7.55;3.85;;;13.90;95.20;;;;;;5034770;28;21210;-73
2022/10/02 06:21:50;;;;;;;7.88;3.47;;;14.00;95.10;;;;;;5032466;28;20431;-73
2022/10/02 06:24:24;;;;;;;7.50;3.40;;;14.00;95.00;;;;;;5032900;28;20455;-73
2022/10/02 06:26:55;;;;;;;6.93;3.23;;;14.00;95.00;;;;;;5028487;28;20419;-74
2022/10/02 06:29:28;;;;;;;5.53;3.30;;;14.10;95.10;;;;;;5027942;28;20427;-73
2022/10/02 06:32:09;;;;;;;7.53;3.30;;;14.10;95.10;;;;;;5026990;28;20437;-74
2022/10/02 06:34:35;;;;;;;9.20;3.30;;;14.10;95.00;;;;;;5022707;28;20438;-73
2022/10/02 06:37:20;;;;;;;6.93;2.95;;;14.10;95.00;;;;;;5027904;28;20545;-73
2022/10/02 06:40:10;;;;;;;7.00;3.60;;;14.00;95.00;;;;;;5029617;28;20426;-72
2022/10/02 06:42:46;;;;;;;7.90;2.80;;;14.10;95.00;;;;;;5027587;28;20433;-74
2022/10/02 06:45:21;;;;;;;6.78;3.20;;;14.10;95.00;;;;;;5027915;28;20442;-74
2022/10/02 06:48:00;;;;;;;8.48;3.17;;;14.10;95.00;;;;;;5025561;28;20477;-73
2022/10/02 06:50:39;;;;;;;5.57;2.75;;;14.20;95.10;;;;;;5026366;28;20786;-74
2022/10/02 06:53:24;;;;;;;5.82;2.80;;;14.20;95.00;;;;;;5024411;28;20431;-74
2022/10/02 06:56:00;;;;;;;6.28;2.80;;;14.20;94.80;;;;;;5027619;28;20467;-75
2022/10/02 06:58:40;;;;;;;4.90;2.70;;;14.20;94.60;;;;;;5028023;28;20427;-74
2022/10/02 07:01:18;;;;;;;5.20;2.90;;;14.20;94.50;;;;;;5027218;28;20423;-75
2022/10/02 07:04:24;;;;;;;3.60;2.20;;;14.20;94.50;;;;;;5024474;28;20438;-75
2022/10/02 07:07:04;;;;;;;4.55;2.53;;;14.20;94.20;;;;;;4990323;28;20471;-74
2022/10/02 07:10:06;;;;;;;4.95;2.22;;;14.20;93.90;;;;;;5025938;28;20454;-75
2022/10/02 07:12:48;;;;;;;4.90;2.28;;;14.30;93.80;;;;;;5021291;28;20917;-73
2022/10/02 07:15:29;;;;;;;6.93;2.78;;;14.30;93.20;;;;;;5027253;28;20430;-74
2022/10/02 07:18:08;;;;;;;5.35;2.15;;;14.30;93.00;;;;;;5025535;28;20840;-74
2022/10/02 07:20:46;;;;;;;4.72;2.10;;;14.30;92.40;;;;;;5027484;28;20947;-73
2022/10/02 07:23:26;;;;;;;5.30;1.80;;;14.30;91.80;;;;;;5015378;28;20407;-74
2022/10/02 07:26:03;;;;;;;4.18;1.60;;;14.30;91.60;;;;;;5027959;28;20423;-74
2022/10/02 07:28:41;;;;;;;5.35;1.75;;;14.30;90.80;;;;;;5031433;28;20977;-73
2022/10/02 07:31:17;;;;;;;4.30;1.60;;;14.30;90.60;;;;;;5022988;28;20477;-73
2022/10/02 07:33:59;;;;;;;4.35;1.50;;;14.30;90.70;;;;;;5029724;28;20432;-74
2022/10/02 07:36:39;;;;;;;3.80;1.83;;;14.30;90.20;;;;;;5026835;28;20445;-74
2022/10/02 07:39:19;;;;;;;3.42;1.80;;;14.30;90.20;;;;;;5031303;28;20430;-74
2022/10/02 07:42:14;;;;;;;3.40;1.40;;;14.30;89.90;;;;;;5031354;28;20817;-73
2022/10/02 07:45:15;;;;;;;6.07;1.67;;;14.30;89.20;;;;;;5029732;28;20430;-74
2022/10/02 07:48:01;;;;;;;3.35;1.52;;;14.30;89.40;;;;;;5025625;28;20448;-73
2022/10/02 07:50:35;;;;;;;3.22;1.20;;;14.30;88.00;;;;;;5024856;28;20435;-73
2022/10/02 07:53:13;;;;;;;3.60;1.20;;;14.30;87.60;;;;;;5029119;28;20976;-72
2022/10/02 07:55:41;;;;;;;2.77;1.20;;;14.30;88.20;;;;;;5031702;28;20802;-72
2022/10/02 07:58:11;;;;;;;4.60;2.80;;;14.30;88.30;;;;;;5031567;28;20430;-75
2022/10/02 08:00:43;;;;;;;2.70;1.42;;;14.30;88.70;;;;;;5031771;28;20419;-74
2022/10/02 08:03:15;;;;;;;4.70;1.48;;;14.30;89.20;;;;;;5028321;28;21090;-71
2022/10/02 08:05:46;;;;;;;4.60;1.50;;;14.30;88.90;;;;;;5030356;28;20992;-73
2022/10/02 08:08:21;;;;;;;2.25;1.13;;;14.30;89.70;;;;;;5023318;28;20470;-73
2022/10/02 08:10:53;;;;;;;3.35;1.77;;;14.30;89.90;;;;;;5031716;28;20461;-73
2022/10/02 08:13:23;;;;;;;2.90;1.70;;;14.30;90.10;;;;;;5032147;28;20441;-73
2022/10/02 08:15:55;;;;;;;3.22;1.27;;;14.30;90.30;;;;;;5021112;28;20418;-72
2022/10/02 08:18:29;;;;;;;3.80;1.60;;;14.30;90.10;;;;;;5030435;28;20438;-72
2022/10/02 08:20:57;;;;;;;3.70;1.33;;;14.30;90.00;;;;;;5031959;28;20442;-73
2022/10/02 08:23:28;;;;;;;3.45;1.40;;;14.40;89.70;;;;;;5031110;28;20948;-74
2022/10/02 08:26:01;;;;;;;3.70;1.30;;;14.50;89.40;;;;;;5030992;28;20419;-73
2022/10/02 08:28:35;;;;;;;4.00;1.70;;;14.50;89.60;;;;;;5030820;28;20434;-72
2022/10/02 08:31:09;;;;;;;4.70;1.73;;;14.50;88.90;;;;;;5017714;28;20426;-73
2022/10/02 08:33:36;;;;;;;4.40;1.73;;;14.40;89.30;;;;;;5029174;28;20443;-74
2022/10/02 08:36:22;;;;;;;3.25;1.60;;;14.40;89.10;;;;;;5030122;28;20464;-72
2022/10/02 08:38:52;;;;;;;3.55;1.90;;;14.40;89.40;;;;;;5029927;28;20431;-73
2022/10/02 08:41:58;;;;;;;3.90;1.80;;;14.40;89.80;;;;;;5031321;28;20419;-73
2022/10/02 08:44:54;;;;;;;3.08;1.30;;;14.40;90.00;;;;;;5027014;28;20967;-73
2022/10/02 08:48:13;;;;;;;4.47;1.65;;;14.50;89.00;;;;;;5002730;28;20423;-72
2022/10/02 08:51:16;;;;;;;4.80;1.60;;;14.60;89.50;;;;;;5038590;28;20442;-73
2022/10/02 08:54:19;;;;;;;3.65;1.45;;;14.60;88.00;;;;;;5033523;28;21001;-73
2022/10/02 08:57:12;;;;;;;5.55;1.60;;;14.80;87.60;;;;;;5031817;28;20431;-74
2022/10/02 09:00:06;;;;;;;3.67;1.60;;;14.80;87.50;;;;;;5030902;28;20917;-74
2022/10/02 09:03:14;;;;;;;4.07;1.30;;;15.00;86.80;;;;;;5029131;28;20502;-74
2022/10/02 09:06:18;;;;;;;4.72;1.50;;;15.10;87.40;;;;;;5025657;28;20498;-72
2022/10/02 09:09:21;;;;;;;2.97;1.50;;;15.10;85.70;;;;;;5024924;28;20425;-73
2022/10/02 09:12:22;;;;;;;3.78;1.88;;;15.20;85.90;;;;;;5021842;28;20407;-73
2022/10/02 09:14:52;;;;;;;3.53;1.33;;;15.30;85.50;;;;;;5029280;28;20440;-73
2022/10/02 09:17:59;;;;;;;3.57;1.60;;;15.30;85.30;;;;;;5026229;28;20455;-73
2022/10/02 09:20:40;;;;;;;2.83;1.38;;;15.60;85.40;;;;;;5032790;28;20411;-74
2022/10/02 09:23:49;;;;;;;2.67;1.35;;;15.90;83.80;;;;;;5052400;28;20433;-73
2022/10/02 09:26:32;;;;;;;3.40;1.60;;;16.30;81.60;;;;;;5053973;28;20497;-71
2022/10/02 09:29:35;;;;;;;3.28;1.50;;;16.50;81.30;;;;;;5045236;28;20427;-73
2022/10/02 09:32:35;;;;;;;5.60;1.80;;;16.80;79.40;;;;;;5032125;28;20571;-73
2022/10/02 09:35:25;;;;;;;4.72;1.40;;;16.90;77.00;;;;;;5032369;28;20431;-72
2022/10/02 09:38:48;;;;;;;3.00;1.30;;;16.70;77.50;;;;;;5021339;28;20434;-74
2022/10/02 09:41:59;;;;;;;4.30;1.40;;;16.40;78.20;;;;;;4998643;28;20429;-72
2022/10/02 09:44:57;;;;;;;3.70;1.50;;;16.30;79.30;;;;;;5031246;28;20472;-73
2022/10/02 09:48:05;;;;;;;3.03;1.20;;;16.30;79.20;;;;;;5035825;28;20427;-73
2022/10/02 09:51:04;;;;;;;3.72;1.40;;;16.20;79.50;;;;;;5014346;28;20415;-73
2022/10/02 09:54:14;;;;;;;5.50;1.80;;;16.10;80.40;;;;;;5049072;28;20450;-72
2022/10/02 09:57:16;;;;;;;4.20;1.60;;;16.10;80.20;;;;;;5047102;28;20426;-72
2022/10/02 10:00:04;;;;;;;4.40;1.85;;;16.00;81.50;;;;;;5043484;28;20423;-73
2022/10/02 10:03:06;;;;;;;4.15;1.80;;;15.90;82.30;;;;;;5045739;28;20438;-72
2022/10/02 10:06:14;;;;;;;3.78;1.80;;;15.90;83.10;;;;;;5039004;28;20422;-72
2022/10/02 10:09:16;;;;;;;5.43;2.00;;;16.00;82.50;;;;;;5021818;28;20526;-72
2022/10/02 10:12:13;;;;;;;5.13;1.90;;;16.10;81.60;;;;;;5022748;28;20456;-72
2022/10/02 10:15:05;;;;;;;4.03;1.30;;;16.20;79.80;;;;;;5041914;28;20939;-73
2022/10/02 10:18:25;;;;;;;3.60;1.50;;;16.30;79.50;;;;;;5039689;28;20442;-73
2022/10/02 10:21:27;;;;;;;5.00;1.73;;;16.30;80.10;;;;;;5026708;28;20485;-72
2022/10/02 10:24:16;;;;;;;3.53;1.10;;;16.30;79.30;;;;;;5013250;28;20797;-73
2022/10/02 10:27:28;;;;;;;4.27;1.40;;;16.20;78.90;;;;;;5029355;28;20482;-72
2022/10/02 10:30:20;;;;;;;4.90;1.50;;;16.30;79.60;;;;;;5020629;28;20435;-73
2022/10/02 10:33:20;;;;;;;4.20;1.60;;;16.40;79.60;;;;;;5023027;28;20947;-72
2022/10/02 10:38:31;;;;;;;2.95;1.33;;;16.40;79.60;;;;;;5013136;28;20433;-73
2022/10/02 10:39:13;;;;;;;3.28;1.67;;;16.50;77.60;;;;;;5028972;28;20489;-74
2022/10/02 10:42:15;;;;;;;3.75;1.20;;;16.40;78.40;;;;;;5027390;28;20415;-76
2022/10/02 10:45:21;;;;;;;2.58;1.40;;;16.40;78.60;;;;;;4989584;28;20423;-74
2022/10/02 10:48:24;;;;;;;3.95;1.50;;;16.40;78.50;;;;;;5025778;28;20513;-73
2022/10/02 10:50:59;;;;;;;3.63;1.67;;;16.50;78.60;;;;;;5024137;28;20419;-73
2022/10/02 10:53:48;;;;;;;3.20;1.50;;;16.70;77.70;;;;;;5038147;28;20427;-73
2022/10/02 10:56:35;;;;;;;3.97;1.48;;;17.00;76.80;;;;;;5046987;28;20414;-72
2022/10/02 10:59:55;;;;;;;4.50;1.80;;;17.10;76.30;;;;;;5034541;28;20407;-74
2022/10/02 11:02:53;;;;;;;4.13;1.45;;;17.10;76.20;;;;;;5022249;28;20422;-74
2022/10/02 11:06:05;;;;;;;4.32;1.70;;;17.00;76.40;;;;;;5020349;28;20415;-72
2022/10/02 11:09:08;;;;;;;4.13;1.70;;;16.80;77.60;;;;;;5016589;28;20426;-74
2022/10/02 11:11:48;;;;;;;3.72;1.60;;;16.70;77.50;;;;;;5027890;28;20438;-73
2022/10/02 11:14:33;;;;;;;5.13;1.88;;;16.70;78.20;;;;;;5024379;28;22452;-73
2022/10/02 11:17:24;;;;;;;3.67;1.90;;;16.80;77.80;;;;;;5028008;28;20677;-74
2022/10/02 11:20:07;;;;;;;4.23;1.70;;;17.00;76.70;;;;;;5038045;28;20488;-74
2022/10/02 11:22:59;;;;;;;3.45;1.60;;;17.00;75.90;;;;;;5047133;28;20419;-73
2022/10/02 11:25:51;;;;;;;3.60;1.70;;;17.00;76.50;;;;;;5040026;28;20427;-74
2022/10/02 11:29:04;;;;;;;3.80;1.90;;;17.00;76.90;;;;;;5025536;28;20446;-73
2022/10/02 11:31:52;;;;;;;4.82;1.90;;;17.00;77.00;;;;;;4952146;29;20900;-72
2022/10/02 11:34:48;;;;;;;6.30;2.03;;;17.10;75.20;;;;;;4950341;29;20460;-73
2022/10/02 11:37:54;;;;;;;3.30;1.65;;;17.00;75.50;;;;;;5026905;28;20457;-72
2022/10/02 11:40:37;;;;;;;4.30;2.10;;;16.80;75.80;;;;;;5003831;28;20423;-73
2022/10/02 11:43:33;;;;;;;4.30;2.03;;;16.80;76.40;;;;;;5029417;28;20423;-74
2022/10/02 11:46:13;;;;;;;5.45;1.80;;;16.70;76.40;;;;;;5019057;28;20435;-73
2022/10/02 11:49:11;;;;;;;2.45;1.42;;;16.80;77.80;;;;;;5029454;28;20426;-73
2022/10/02 11:52:00;;;;;;;4.60;1.90;;;16.80;76.60;;;;;;5003134;28;20417;-73
2022/10/02 11:54:44;;;;;;;4.65;1.80;;;16.90;76.80;;;;;;5029378;28;20415;-73
2022/10/02 11:57:28;;;;;;;3.73;2.10;;;17.00;76.40;;;;;;5029025;28;21086;-73
2022/10/02 12:00:11;;;;;;;5.25;2.20;;;17.10;76.70;;;;;;5029144;28;20441;-74
2022/10/02 12:02:44;;;;;;;5.53;2.40;;;17.30;75.40;;;;;;5027942;28;20439;-75
2022/10/02 12:05:23;;;;;;;6.25;2.33;;;17.50;75.20;;;;;;5028574;28;20426;-74
2022/10/02 12:08:00;;;;;;;4.13;1.85;;;17.70;75.20;;;;;;5028218;28;20442;-74
2022/10/02 12:10:43;;;;;;;4.33;2.10;;;17.70;73.70;;;;;;5028482;28;20423;-74
2022/10/02 12:13:33;;;;;;;4.95;2.00;;;17.70;73.50;;;;;;5028260;28;20423;-74
2022/10/02 12:16:10;;;;;;;5.32;2.58;;;17.70;73.30;;;;;;5031370;28;20431;-73
2022/10/02 12:18:52;;;;;;;3.30;1.93;;;17.70;73.60;;;;;;5031610;28;20801;-73
2022/10/02 12:27:22;;;;;;;4.28;2.30;;;18.20;70.50;;;;;;5031032;28;20824;-76
2022/10/02 12:30:02;;;;;;;3.97;2.10;;;18.20;69.20;;;;;;5030277;28;21097;-75
2022/10/02 12:33:06;;;;;;;4.10;2.17;;;18.10;69.20;;;;;;5030390;28;20434;-74
2022/10/02 12:35:48;;;;;;;5.72;2.22;;;17.90;70.00;;;;;;5012120;28;20426;-74
2022/10/02 12:38:26;;;;;;;5.78;2.30;;;17.90;71.30;;;;;;5024579;28;20797;-74
2022/10/02 12:41:02;;;;;;;6.05;3.22;;;17.90;71.10;;;;;;5025814;28;20423;-74
2022/10/02 12:44:11;;;;;;;4.90;2.90;;;18.10;69.60;;;;;;5031360;28;20923;-75
2022/10/02 12:47:03;;;;;;;5.53;2.70;;;18.20;70.00;;;;;;5032520;28;20924;-76
2022/10/02 12:49:41;;;;;;;4.97;2.80;;;18.20;69.90;;;;;;5044252;28;20429;-73
2022/10/02 12:52:39;;;;;;;6.00;3.20;;;17.90;70.80;;;;;;5036618;28;20415;-74
2022/10/02 12:55:44;;;;;;;4.57;2.40;;;17.70;72.40;;;;;;5047054;28;20441;-73
2022/10/02 12:58:22;;;;;;;5.35;2.72;;;17.70;73.50;;;;;;5035323;28;20426;-73
2022/10/02 13:01:18;;;;;;;4.40;2.80;;;17.80;73.40;;;;;;5033212;28;20435;-73
2022/10/02 13:04:08;;;;;;;4.53;2.67;;;18.30;71.80;;;;;;5028452;28;20897;-75
2022/10/02 13:06:58;;;;;;;4.00;2.17;;;18.90;69.60;;;;;;5032738;28;20435;-73
2022/10/02 13:09:35;;;;;;;3.42;2.42;;;19.30;68.10;;;;;;5031894;28;20439;-75
2022/10/02 13:12:25;;;;;;;4.07;2.50;;;19.40;65.30;;;;;;5029036;28;20876;-74
2022/10/02 13:15:10;;;;;;;4.47;2.53;;;19.20;66.10;;;;;;5030001;28;20462;-74
2022/10/02 13:17:46;;;;;;;5.18;2.83;;;19.10;64.10;;;;;;5023013;28;20498;-74
2022/10/02 13:20:25;;;;;;;3.90;2.60;;;19.00;64.20;;;;;;5023501;28;20893;-74
2022/10/02 13:22:58;;;;;;;4.53;2.30;;;18.90;64.50;;;;;;5030520;28;20419;-73
2022/10/02 13:25:46;;;;;;;5.45;2.53;;;18.90;65.20;;;;;;5029068;28;20439;-72
2022/10/02 13:28:37;;;;;;;4.95;2.28;;;18.90;64.60;;;;;;5026601;28;20431;-74
2022/10/02 13:31:15;;;;;;;5.15;2.50;;;18.60;65.40;;;;;;5027031;28;20434;-75
2022/10/02 13:34:04;;;;;;;4.68;2.97;;;18.50;65.70;;;;;;5027402;28;20431;-74
2022/10/02 13:36:40;;;;;;;4.55;2.65;;;18.40;65.90;;;;;;5030642;28;20450;-74
2022/10/02 13:39:29;;;;;;;5.20;2.80;;;18.20;66.10;;;;;;5028209;28;20450;-74
2022/10/02 13:42:07;;;;;;;5.53;2.45;;;18.00;67.20;;;;;;5029597;28;20419;-73
2022/10/02 13:44:40;;;;;;;3.80;2.30;;;18.00;68.00;;;;;;5030507;28;20427;-74
2022/10/02 13:47:30;;;;;;;4.82;2.63;;;17.90;68.70;;;;;;5030307;28;20431;-73
2022/10/02 13:50:18;;;;;;;6.20;3.00;;;17.80;69.40;;;;;;5030414;28;20437;-74
2022/10/02 13:52:59;;;;;;;5.37;2.67;;;17.90;69.80;;;;;;5020147;28;20930;-73
2022/10/02 13:55:27;;;;;;;5.43;2.75;;;18.10;69.00;;;;;;5029934;28;21057;-72
2022/10/02 13:58:19;;;;;;;5.77;2.60;;;18.00;69.40;;;;;;5029636;28;20836;-73
2022/10/02 14:00:58;;;;;;;4.60;2.85;;;18.00;69.40;;;;;;5039595;28;20423;-74
2022/10/02 14:03:41;;;;;;;5.57;2.90;;;17.80;69.40;;;;;;5048772;28;20415;-73